McAlester, OK

3:43 PM CDT on April 28, 2015 (GMT -0500)
Ada Municipal | | Change Station
CLOSE
Current Station
Airport
Location: Ada,
Elevation: 1017 ft
Nearby Weather Stations

Elev 1017 ft 34.80 °N, 96.67 °W | Updated 8 minutes ago

Overcast
Overcast
55 °F
Feels Like 55 °F
N
10
Wind Variable Wind from North

Today
High -- | Low -- °F
--% Chance of Precip.
Yesterday
High -- | Low -- °F
Precip. -- in
6:35 AM 8:06 PM
Waxing Gibbous, 76% visible
Pressure 30.10 in
Visibility 10.0 miles
Clouds Scattered Clouds 2800 ft
Mostly Cloudy 9500 ft
Mostly Cloudy 12000 ft
Dew Point 46 °F
Humidity 72%
Rainfall 0.02 in
Snow Depth Not available.
UV 5 out of 12
Pollen 2.60 out of 12
Air Quality Not available.
Flu Activity Local Activity
METAR KADH 282035Z AUTO 35009KT 10SM SCT028 BKN095 BKN120 13/08 A3010 RMK AO2

More Conditions Fewer Conditions

Pressure 30.10 in
Visibility 10.0 miles
Clouds Scattered Clouds 2800 ft
Mostly Cloudy 9500 ft
Mostly Cloudy 12000 ft
Dew Point 46 °F
Humidity 72%
Rainfall 0.02 in
Snow Depth Not available.
UV 5 out of 12
Pollen 2.60 out of 12
Air Quality Not available.
Flu Activity Local Activity
METAR KADH 282035Z AUTO 35009KT 10SM SCT028 BKN095 BKN120 13/08 A3010 RMK AO2

More Conditions Fewer Conditions

Nowcast | as of 2:47 PM CDT on April 28, 2015

At 2:47 PM...National Weather Service Doppler radars continued to detect scattered light rain showers affecting southeast Oklahoma...south of Highway 40. All this activity was rotating toward the west around the Northside of a low pressure system over northeast Texas. Through 4:30 PM...passing light rain showers will remain possible for locations primarily south of Highway 40 in southeast Oklahoma. Rainfall amounts will be light...with hourly rainfall rates between a trace...to a few hundredths of an inch.

×

10-Day Weather Forecast

Almanac

Astronomy

Apr. 28, 2015 Rise Set
Actual Time
Civil Twilight
Nautical Twilight
Astronomical Twilight
Moon
Length of Visible Light
Length of Day
Tomorrow will be .
, % of the Moon is Illuminated

Today's Extremes

State Highs State Lows

Community

WunderPhotos

Upload Photos

1,817,749 photos uploaded!

WunderBlogs® & News

Nearby

Air Quality

  Air Quality AQ Index Pollutant
Not available.

Snow Depth

Station Depth Elevation

Earthquake Activity

City Distance Mag. Time & Date
Minimum magnitude displayed is 2.5.

Coastal Water Temperatures

Place Temperature

Stations

Nearby Weather Stations

Station Location Temp. Windchill Dew Point Humidity Wind Precip. Elev Updated Type